Mount Braddock, Pennsylvania
Current Conditions -  °F | °C
As of 4:53 PM on Friday 28 Nov 2014 (Local Time) from KMGW Reporting Station
Light Snow Light Snow  
Wind Chill: 28°   Ceiling: 3200
Heat Index: 28°   Visibility: 9mi
Dew Point: 14°   Wind: 3mph
Humidity: 56%   Direction: NA
Pressure: 30.25"   Gusts: NA
Location:  39.95°N, 79.65°W
Report Text: KMGW 282153Z AUTO VRB03KT 9SM -SN OVC032 M02/M10 A3025 RMK AO2 SLP257 P0000 T10221100 TSNO
Loading
Personal Weather Stations






























Interactive Weather Map New forecast layout! Learn more

10-Day Weather Forecast

Advertisements
Track Severe Weather on mobile